Aérodrome :
LOGIN :

S'inscrire | Disclaimer

   EN    FR    IT 

 










Légende :    VFR   VFR Marginal   IFR   IFR Intensif   IFR Très Intensif
Visi : 
Plafond : 
>= 8 km
>= 3000ft
5 à 8 km
1000 à 3000 ft
1500m à 5 km
500 à 1000 ft
800 à 1500m
200 à 500 ft
< 800m
< 200 ft
Symboles :   Orages  Brouillard  Fortes neiges  Fortes précipitations  Vent > 20 kt
SIGMETs :   Divers  Orages  Givrage  Turbulence  Onde Orograph.  Cendres Volcan.







- Altitude de l'aérodrome : 93 ft
- Code IATA : XRY


LEJR - Jerez

DERNIER METAR :
  • 191230Z 09012KT 050V150 CAVOK 34/16 Q1014

METARs EXPIRÉS :
  • 191200Z 09011KT 050V130 CAVOK 34/16 Q1015
  • 191130Z 10011KT 060V150 CAVOK 34/15 Q1015
  • 191100Z 10010G20KT 070V140 CAVOK 33/16 Q1015
  • 191030Z 09012G23KT 050V150 CAVOK 33/16 Q1015
  • 191000Z 09014KT 060V120 CAVOK 31/16 Q1015

TAF TAF LEJR
Valide du 19 à 12h jusqu'au 20 à 12h UTC


191100Z 1912/2012 11009KT CAVOK TX37/1914Z TN20/2006Z
PROB40
TEMPO 1912/1920 12015G25KT
Pas de NOTAMs connus pour ce terrain.



MET'MAP, la Météo Aéronautique d'un coup d'oeil ! - Copyright ORBIFLY Décembre 2007 - Disclaimer

ORBIFLY MET'MAP TEAM :

Programmation & Développement : Alexandra Zaïnal
Conception & Développement : Baudouin d'Aumeries
Co-Programmation & Développement : Marc-Olivier Méhu
Soutien technique & logistique : Manuel Goepfert

Contact : metmap@orbifly.com




SOURCES & CREDITS :

   NOAA